sensor_id;sensor_type;location;lat;lon;timestamp;temperature;humidity
12025;DHT22;6073;53.230;10.444;2023-04-24T00:00:24;12.30;99.90
12025;DHT22;6073;53.230;10.444;2023-04-24T00:02:50;12.30;99.90
12025;DHT22;6073;53.230;10.444;2023-04-24T00:05:16;12.30;99.90
12025;DHT22;6073;53.230;10.444;2023-04-24T00:07:44;12.20;99.90
12025;DHT22;6073;53.230;10.444;2023-04-24T00:10:10;12.20;99.90
12025;DHT22;6073;53.230;10.444;2023-04-24T00:12:36;12.10;99.90
12025;DHT22;6073;53.230;10.444;2023-04-24T00:15:02;12.10;99.90
12025;DHT22;6073;53.230;10.444;2023-04-24T00:17:28;12.10;99.90
12025;DHT22;6073;53.230;10.444;2023-04-24T00:19:54;11.90;99.90
12025;DHT22;6073;53.230;10.444;2023-04-24T00:22:25;11.90;99.90
12025;DHT22;6073;53.230;10.444;2023-04-24T00:24:50;11.80;99.90
12025;DHT22;6073;53.230;10.444;2023-04-24T00:27:16;11.80;99.90
12025;DHT22;6073;53.230;10.444;2023-04-24T00:29:41;11.70;99.90
12025;DHT22;6073;53.230;10.444;2023-04-24T00:32:07;11.70;99.90
12025;DHT22;6073;53.230;10.444;2023-04-24T00:34:32;11.70;99.90
12025;DHT22;6073;53.230;10.444;2023-04-24T00:36:58;11.70;99.90
12025;DHT22;6073;53.230;10.444;2023-04-24T00:39:23;11.70;99.90
12025;DHT22;6073;53.230;10.444;2023-04-24T00:41:49;11.70;99.90
12025;DHT22;6073;53.230;10.444;2023-04-24T00:44:16;11.60;99.90
12025;DHT22;6073;53.230;10.444;2023-04-24T00:46:42;11.60;99.90
12025;DHT22;6073;53.230;10.444;2023-04-24T00:49:08;11.70;99.90
12025;DHT22;6073;53.230;10.444;2023-04-24T00:51:33;11.70;99.90
12025;DHT22;6073;53.230;10.444;2023-04-24T00:54:00;11.70;99.90
12025;DHT22;6073;53.230;10.444;2023-04-24T00:56:26;11.70;99.90
12025;DHT22;6073;53.230;10.444;2023-04-24T00:58:52;11.80;99.90
12025;DHT22;6073;53.230;10.444;2023-04-24T01:01:21;11.80;99.90
12025;DHT22;6073;53.230;10.444;2023-04-24T01:03:49;11.90;99.90
12025;DHT22;6073;53.230;10.444;2023-04-24T01:06:15;12.00;99.90
12025;DHT22;6073;53.230;10.444;2023-04-24T01:08:41;12.00;99.90
12025;DHT22;6073;53.230;10.444;2023-04-24T01:11:07;12.00;99.90
12025;DHT22;6073;53.230;10.444;2023-04-24T01:13:33;12.00;99.90
12025;DHT22;6073;53.230;10.444;2023-04-24T01:15:59;12.00;99.90
12025;DHT22;6073;53.230;10.444;2023-04-24T01:18:25;11.90;99.90
12025;DHT22;6073;53.230;10.444;2023-04-24T01:20:53;11.90;99.90
12025;DHT22;6073;53.230;10.444;2023-04-24T01:23:20;12.00;99.90
12025;DHT22;6073;53.230;10.444;2023-04-24T01:25:46;11.90;99.90
12025;DHT22;6073;53.230;10.444;2023-04-24T01:28:12;11.80;99.90
12025;DHT22;6073;53.230;10.444;2023-04-24T01:30:39;11.70;99.90
12025;DHT22;6073;53.230;10.444;2023-04-24T01:33:05;11.70;99.90
12025;DHT22;6073;53.230;10.444;2023-04-24T01:35:31;11.70;99.90
12025;DHT22;6073;53.230;10.444;2023-04-24T01:37:56;11.60;99.90
12025;DHT22;6073;53.230;10.444;2023-04-24T01:40:22;11.60;99.90
12025;DHT22;6073;53.230;10.444;2023-04-24T01:42:48;11.60;99.90
12025;DHT22;6073;53.230;10.444;2023-04-24T01:45:13;11.40;99.90
12025;DHT22;6073;53.230;10.444;2023-04-24T01:47:39;11.40;99.90
12025;DHT22;6073;53.230;10.444;2023-04-24T01:50:05;11.20;99.90
12025;DHT22;6073;53.230;10.444;2023-04-24T01:52:31;11.10;99.90
12025;DHT22;6073;53.230;10.444;2023-04-24T01:55:02;11.10;99.90
12025;DHT22;6073;53.230;10.444;2023-04-24T01:57:29;11.00;99.90
12025;DHT22;6073;53.230;10.444;2023-04-24T01:59:55;10.90;99.90
12025;DHT22;6073;53.230;10.444;2023-04-24T02:02:21;10.90;99.90
12025;DHT22;6073;53.230;10.444;2023-04-24T02:04:49;10.90;99.90
12025;DHT22;6073;53.230;10.444;2023-04-24T02:07:15;10.80;99.90
12025;DHT22;6073;53.230;10.444;2023-04-24T02:09:40;10.90;99.90
12025;DHT22;6073;53.230;10.444;2023-04-24T02:12:06;10.80;99.90
12025;DHT22;6073;53.230;10.444;2023-04-24T02:14:31;10.70;99.90
12025;DHT22;6073;53.230;10.444;2023-04-24T02:16:57;10.60;99.90
12025;DHT22;6073;53.230;10.444;2023-04-24T02:19:23;10.50;99.90
12025;DHT22;6073;53.230;10.444;2023-04-24T02:21:48;10.50;99.90
12025;DHT22;6073;53.230;10.444;2023-04-24T02:24:14;10.30;99.90
12025;DHT22;6073;53.230;10.444;2023-04-24T02:26:39;10.30;99.90
12025;DHT22;6073;53.230;10.444;2023-04-24T02:29:05;10.20;99.90
12025;DHT22;6073;53.230;10.444;2023-04-24T02:31:30;10.20;99.90
12025;DHT22;6073;53.230;10.444;2023-04-24T02:33:56;10.20;99.90
12025;DHT22;6073;53.230;10.444;2023-04-24T02:36:21;10.20;99.90
12025;DHT22;6073;53.230;10.444;2023-04-24T02:38:47;10.20;99.90
12025;DHT22;6073;53.230;10.444;2023-04-24T02:41:13;10.20;99.90
12025;DHT22;6073;53.230;10.444;2023-04-24T02:43:38;10.30;99.90
12025;DHT22;6073;53.230;10.444;2023-04-24T02:46:04;10.40;99.90
12025;DHT22;6073;53.230;10.444;2023-04-24T02:48:29;10.40;99.90
12025;DHT22;6073;53.230;10.444;2023-04-24T02:50:55;10.40;99.90
12025;DHT22;6073;53.230;10.444;2023-04-24T02:53:21;10.50;99.90
12025;DHT22;6073;53.230;10.444;2023-04-24T02:55:46;10.40;99.90
12025;DHT22;6073;53.230;10.444;2023-04-24T02:58:12;10.30;99.90
12025;DHT22;6073;53.230;10.444;2023-04-24T03:00:38;10.30;99.90
12025;DHT22;6073;53.230;10.444;2023-04-24T03:03:04;10.20;99.90
12025;DHT22;6073;53.230;10.444;2023-04-24T03:05:30;10.20;99.90
12025;DHT22;6073;53.230;10.444;2023-04-24T03:07:56;10.30;99.90
12025;DHT22;6073;53.230;10.444;2023-04-24T03:10:22;10.30;99.90
12025;DHT22;6073;53.230;10.444;2023-04-24T03:12:48;10.30;99.90
12025;DHT22;6073;53.230;10.444;2023-04-24T03:15:13;10.30;99.90
12025;DHT22;6073;53.230;10.444;2023-04-24T03:17:39;10.20;99.90
12025;DHT22;6073;53.230;10.444;2023-04-24T03:20:05;10.20;99.90
12025;DHT22;6073;53.230;10.444;2023-04-24T03:22:31;10.20;99.90
12025;DHT22;6073;53.230;10.444;2023-04-24T03:24:58;10.10;99.90
12025;DHT22;6073;53.230;10.444;2023-04-24T03:27:23;10.10;99.90
12025;DHT22;6073;53.230;10.444;2023-04-24T03:29:49;10.10;99.90
12025;DHT22;6073;53.230;10.444;2023-04-24T03:32:19;10.00;99.90
12025;DHT22;6073;53.230;10.444;2023-04-24T03:34:44;10.10;99.90
12025;DHT22;6073;53.230;10.444;2023-04-24T03:37:10;10.10;99.90
12025;DHT22;6073;53.230;10.444;2023-04-24T03:39:35;10.00;99.90
12025;DHT22;6073;53.230;10.444;2023-04-24T03:42:01;9.90;99.90
12025;DHT22;6073;53.230;10.444;2023-04-24T03:44:27;9.80;99.90
12025;DHT22;6073;53.230;10.444;2023-04-24T03:46:52;9.70;99.90
12025;DHT22;6073;53.230;10.444;2023-04-24T03:49:18;9.60;99.90
12025;DHT22;6073;53.230;10.444;2023-04-24T03:51:44;9.70;99.90
12025;DHT22;6073;53.230;10.444;2023-04-24T03:54:09;9.60;99.90
12025;DHT22;6073;53.230;10.444;2023-04-24T03:56:35;9.60;99.90
12025;DHT22;6073;53.230;10.444;2023-04-24T03:59:00;9.60;99.90
12025;DHT22;6073;53.230;10.444;2023-04-24T04:01:26;9.60;99.90
12025;DHT22;6073;53.230;10.444;2023-04-24T04:03:53;9.60;99.90
12025;DHT22;6073;53.230;10.444;2023-04-24T04:06:19;9.60;99.90
12025;DHT22;6073;53.230;10.444;2023-04-24T04:08:44;9.40;99.90
12025;DHT22;6073;53.230;10.444;2023-04-24T04:11:10;9.40;99.90
12025;DHT22;6073;53.230;10.444;2023-04-24T04:13:35;9.30;99.90
12025;DHT22;6073;53.230;10.444;2023-04-24T04:16:01;9.20;99.90
12025;DHT22;6073;53.230;10.444;2023-04-24T04:18:27;9.20;99.90
12025;DHT22;6073;53.230;10.444;2023-04-24T04:20:52;9.20;99.90
12025;DHT22;6073;53.230;10.444;2023-04-24T04:23:18;9.20;99.90
12025;DHT22;6073;53.230;10.444;2023-04-24T04:25:44;9.20;99.90
12025;DHT22;6073;53.230;10.444;2023-04-24T04:28:09;9.10;99.90
12025;DHT22;6073;53.230;10.444;2023-04-24T04:30:35;9.10;99.90
12025;DHT22;6073;53.230;10.444;2023-04-24T04:33:03;9.10;99.90
12025;DHT22;6073;53.230;10.444;2023-04-24T04:35:28;9.10;99.90
12025;DHT22;6073;53.230;10.444;2023-04-24T04:37:54;9.10;99.90
12025;DHT22;6073;53.230;10.444;2023-04-24T04:40:21;9.20;99.90
12025;DHT22;6073;53.230;10.444;2023-04-24T04:42:46;9.30;99.90
12025;DHT22;6073;53.230;10.444;2023-04-24T04:45:12;9.30;99.90
12025;DHT22;6073;53.230;10.444;2023-04-24T04:47:38;9.40;99.90
12025;DHT22;6073;53.230;10.444;2023-04-24T04:50:05;9.40;99.90
12025;DHT22;6073;53.230;10.444;2023-04-24T04:52:31;9.40;99.90
12025;DHT22;6073;53.230;10.444;2023-04-24T04:54:56;9.50;99.90
12025;DHT22;6073;53.230;10.444;2023-04-24T04:57:22;9.60;99.90
12025;DHT22;6073;53.230;10.444;2023-04-24T04:59:47;9.90;99.90
12025;DHT22;6073;53.230;10.444;2023-04-24T05:02:13;10.10;99.90
12025;DHT22;6073;53.230;10.444;2023-04-24T05:04:38;10.50;99.90
12025;DHT22;6073;53.230;10.444;2023-04-24T05:07:04;10.70;99.90
12025;DHT22;6073;53.230;10.444;2023-04-24T05:09:29;10.90;99.90
12025;DHT22;6073;53.230;10.444;2023-04-24T05:11:55;11.20;99.90
12025;DHT22;6073;53.230;10.444;2023-04-24T05:14:21;11.50;99.90
12025;DHT22;6073;53.230;10.444;2023-04-24T05:16:47;11.70;99.90
12025;DHT22;6073;53.230;10.444;2023-04-24T05:19:13;11.90;99.90
12025;DHT22;6073;53.230;10.444;2023-04-24T05:21:39;12.30;99.90
12025;DHT22;6073;53.230;10.444;2023-04-24T05:24:05;13.10;99.90
12025;DHT22;6073;53.230;10.444;2023-04-24T05:26:31;12.90;99.90
12025;DHT22;6073;53.230;10.444;2023-04-24T05:28:57;12.90;99.90
12025;DHT22;6073;53.230;10.444;2023-04-24T05:31:22;12.50;99.90
12025;DHT22;6073;53.230;10.444;2023-04-24T05:33:48;12.40;99.90
12025;DHT22;6073;53.230;10.444;2023-04-24T05:36:13;12.50;99.90
12025;DHT22;6073;53.230;10.444;2023-04-24T05:38:39;12.80;99.90
12025;DHT22;6073;53.230;10.444;2023-04-24T05:41:05;13.30;99.90
12025;DHT22;6073;53.230;10.444;2023-04-24T05:43:30;13.80;99.90
12025;DHT22;6073;53.230;10.444;2023-04-24T05:45:56;14.00;99.90
12025;DHT22;6073;53.230;10.444;2023-04-24T05:48:21;13.90;99.90
12025;DHT22;6073;53.230;10.444;2023-04-24T05:50:48;14.30;99.90
12025;DHT22;6073;53.230;10.444;2023-04-24T05:53:13;14.60;99.90
12025;DHT22;6073;53.230;10.444;2023-04-24T05:55:39;14.60;99.90
12025;DHT22;6073;53.230;10.444;2023-04-24T05:58:04;14.60;99.90
12025;DHT22;6073;53.230;10.444;2023-04-24T06:00:30;14.40;99.90
12025;DHT22;6073;53.230;10.444;2023-04-24T06:02:56;14.40;99.90
12025;DHT22;6073;53.230;10.444;2023-04-24T06:05:22;14.30;99.90
12025;DHT22;6073;53.230;10.444;2023-04-24T06:07:47;14.50;99.90
12025;DHT22;6073;53.230;10.444;2023-04-24T06:10:13;14.70;99.90
12025;DHT22;6073;53.230;10.444;2023-04-24T06:12:39;15.20;99.90
12025;DHT22;6073;53.230;10.444;2023-04-24T06:15:05;15.80;99.90
12025;DHT22;6073;53.230;10.444;2023-04-24T06:17:31;16.00;99.90
12025;DHT22;6073;53.230;10.444;2023-04-24T06:19:57;16.80;99.90
12025;DHT22;6073;53.230;10.444;2023-04-24T06:22:23;16.10;99.90
12025;DHT22;6073;53.230;10.444;2023-04-24T06:24:48;16.20;99.90
12025;DHT22;6073;53.230;10.444;2023-04-24T06:27:14;16.20;99.90
12025;DHT22;6073;53.230;10.444;2023-04-24T06:29:39;17.10;99.90
12025;DHT22;6073;53.230;10.444;2023-04-24T06:32:05;17.30;99.90
12025;DHT22;6073;53.230;10.444;2023-04-24T06:34:30;18.10;99.90
12025;DHT22;6073;53.230;10.444;2023-04-24T06:36:58;18.10;99.90
12025;DHT22;6073;53.230;10.444;2023-04-24T06:39:23;18.30;99.90
12025;DHT22;6073;53.230;10.444;2023-04-24T06:41:49;18.40;99.90
12025;DHT22;6073;53.230;10.444;2023-04-24T06:44:15;18.20;99.90
12025;DHT22;6073;53.230;10.444;2023-04-24T06:46:41;18.30;99.90
12025;DHT22;6073;53.230;10.444;2023-04-24T06:49:07;18.50;99.90
12025;DHT22;6073;53.230;10.444;2023-04-24T06:51:32;18.70;99.90
12025;DHT22;6073;53.230;10.444;2023-04-24T06:53:58;18.20;99.90
12025;DHT22;6073;53.230;10.444;2023-04-24T06:56:25;18.20;99.90
12025;DHT22;6073;53.230;10.444;2023-04-24T06:58:51;18.60;99.90
12025;DHT22;6073;53.230;10.444;2023-04-24T07:01:17;18.60;99.90
12025;DHT22;6073;53.230;10.444;2023-04-24T07:03:43;18.60;99.90
12025;DHT22;6073;53.230;10.444;2023-04-24T07:06:09;18.20;99.90
12025;DHT22;6073;53.230;10.444;2023-04-24T07:08:36;18.00;99.90
12025;DHT22;6073;53.230;10.444;2023-04-24T07:11:02;17.80;99.90
12025;DHT22;6073;53.230;10.444;2023-04-24T07:13:28;17.50;99.90
12025;DHT22;6073;53.230;10.444;2023-04-24T07:15:54;17.20;99.90
12025;DHT22;6073;53.230;10.444;2023-04-24T07:18:20;17.70;99.90
12025;DHT22;6073;53.230;10.444;2023-04-24T07:20:46;17.90;99.90
12025;DHT22;6073;53.230;10.444;2023-04-24T07:23:12;17.20;99.90
12025;DHT22;6073;53.230;10.444;2023-04-24T07:25:37;17.20;99.90
12025;DHT22;6073;53.230;10.444;2023-04-24T07:28:04;17.60;99.90
12025;DHT22;6073;53.230;10.444;2023-04-24T07:30:30;17.40;99.90
12025;DHT22;6073;53.230;10.444;2023-04-24T07:32:56;17.00;99.90
12025;DHT22;6073;53.230;10.444;2023-04-24T07:35:21;16.60;99.90
12025;DHT22;6073;53.230;10.444;2023-04-24T07:37:47;16.30;99.90
12025;DHT22;6073;53.230;10.444;2023-04-24T07:40:13;15.90;99.90
12025;DHT22;6073;53.230;10.444;2023-04-24T07:42:39;15.50;99.90
12025;DHT22;6073;53.230;10.444;2023-04-24T07:45:05;15.40;99.90
12025;DHT22;6073;53.230;10.444;2023-04-24T07:47:31;15.10;99.90
12025;DHT22;6073;53.230;10.444;2023-04-24T07:49:57;15.40;99.90
12025;DHT22;6073;53.230;10.444;2023-04-24T07:52:23;15.50;99.90
12025;DHT22;6073;53.230;10.444;2023-04-24T07:54:49;15.60;99.90
12025;DHT22;6073;53.230;10.444;2023-04-24T07:57:15;15.90;99.90
12025;DHT22;6073;53.230;10.444;2023-04-24T07:59:41;16.20;99.90
12025;DHT22;6073;53.230;10.444;2023-04-24T08:02:07;16.50;99.90
12025;DHT22;6073;53.230;10.444;2023-04-24T08:04:33;16.30;99.90
12025;DHT22;6073;53.230;10.444;2023-04-24T08:06:58;16.20;99.90
12025;DHT22;6073;53.230;10.444;2023-04-24T08:09:24;15.90;99.90
12025;DHT22;6073;53.230;10.444;2023-04-24T08:11:50;15.70;99.90
12025;DHT22;6073;53.230;10.444;2023-04-24T08:14:15;15.90;99.90
12025;DHT22;6073;53.230;10.444;2023-04-24T08:16:41;16.00;99.90
12025;DHT22;6073;53.230;10.444;2023-04-24T08:19:07;16.70;99.90
12025;DHT22;6073;53.230;10.444;2023-04-24T08:21:33;16.90;99.90
12025;DHT22;6073;53.230;10.444;2023-04-24T08:23:58;16.80;99.90
12025;DHT22;6073;53.230;10.444;2023-04-24T08:26:24;16.90;99.90
12025;DHT22;6073;53.230;10.444;2023-04-24T08:28:50;16.80;99.90
12025;DHT22;6073;53.230;10.444;2023-04-24T08:31:15;18.10;99.90
12025;DHT22;6073;53.230;10.444;2023-04-24T08:33:41;18.40;99.90
12025;DHT22;6073;53.230;10.444;2023-04-24T08:36:07;19.10;99.90
12025;DHT22;6073;53.230;10.444;2023-04-24T08:38:33;19.00;99.90
12025;DHT22;6073;53.230;10.444;2023-04-24T08:41:00;17.50;99.90
12025;DHT22;6073;53.230;10.444;2023-04-24T08:43:26;16.50;99.90
12025;DHT22;6073;53.230;10.444;2023-04-24T08:45:54;15.90;99.90
12025;DHT22;6073;53.230;10.444;2023-04-24T08:48:22;15.50;99.90
12025;DHT22;6073;53.230;10.444;2023-04-24T08:50:50;15.20;99.90
12025;DHT22;6073;53.230;10.444;2023-04-24T08:53:16;15.00;99.90
12025;DHT22;6073;53.230;10.444;2023-04-24T08:55:43;14.90;99.90
12025;DHT22;6073;53.230;10.444;2023-04-24T08:58:12;15.00;99.90
12025;DHT22;6073;53.230;10.444;2023-04-24T09:00:39;15.10;99.90
12025;DHT22;6073;53.230;10.444;2023-04-24T09:03:05;15.00;99.90
12025;DHT22;6073;53.230;10.444;2023-04-24T09:05:32;15.10;99.90
12025;DHT22;6073;53.230;10.444;2023-04-24T09:07:59;15.50;99.90
12025;DHT22;6073;53.230;10.444;2023-04-24T09:10:27;15.80;99.90
12025;DHT22;6073;53.230;10.444;2023-04-24T09:12:56;16.40;99.90
12025;DHT22;6073;53.230;10.444;2023-04-24T09:15:24;16.90;99.90
12025;DHT22;6073;53.230;10.444;2023-04-24T09:17:50;17.00;99.90
12025;DHT22;6073;53.230;10.444;2023-04-24T09:20:15;16.80;99.90
12025;DHT22;6073;53.230;10.444;2023-04-24T09:22:42;16.60;99.90
12025;DHT22;6073;53.230;10.444;2023-04-24T09:25:09;16.40;99.90
12025;DHT22;6073;53.230;10.444;2023-04-24T09:27:41;16.30;99.90
12025;DHT22;6073;53.230;10.444;2023-04-24T09:30:08;16.00;99.90
12025;DHT22;6073;53.230;10.444;2023-04-24T09:32:33;15.60;99.90
12025;DHT22;6073;53.230;10.444;2023-04-24T09:35:07;15.30;99.90
12025;DHT22;6073;53.230;10.444;2023-04-24T09:37:44;14.90;99.90
12025;DHT22;6073;53.230;10.444;2023-04-24T09:42:42;14.20;99.90
12025;DHT22;6073;53.230;10.444;2023-04-24T09:45:09;14.10;99.90
12025;DHT22;6073;53.230;10.444;2023-04-24T09:47:37;14.10;99.90
12025;DHT22;6073;53.230;10.444;2023-04-24T09:50:13;14.60;99.90
12025;DHT22;6073;53.230;10.444;2023-04-24T09:52:43;15.20;99.90
12025;DHT22;6073;53.230;10.444;2023-04-24T09:55:21;15.80;99.90
12025;DHT22;6073;53.230;10.444;2023-04-24T09:57:57;16.40;99.90
12025;DHT22;6073;53.230;10.444;2023-04-24T10:00:28;16.50;99.90
12025;DHT22;6073;53.230;10.444;2023-04-24T10:03:04;16.20;99.90
12025;DHT22;6073;53.230;10.444;2023-04-24T10:05:32;15.50;99.90
12025;DHT22;6073;53.230;10.444;2023-04-24T10:08:07;15.30;99.90
12025;DHT22;6073;53.230;10.444;2023-04-24T10:10:34;15.30;99.90
12025;DHT22;6073;53.230;10.444;2023-04-24T10:13:00;15.30;99.90
12025;DHT22;6073;53.230;10.444;2023-04-24T10:15:27;15.40;99.90
12025;DHT22;6073;53.230;10.444;2023-04-24T10:17:53;15.40;99.90
12025;DHT22;6073;53.230;10.444;2023-04-24T10:20:23;15.50;99.90
12025;DHT22;6073;53.230;10.444;2023-04-24T10:22:51;15.40;99.90
12025;DHT22;6073;53.230;10.444;2023-04-24T10:25:22;16.00;99.90
12025;DHT22;6073;53.230;10.444;2023-04-24T10:27:49;16.60;99.90
12025;DHT22;6073;53.230;10.444;2023-04-24T10:30:16;16.40;99.90
12025;DHT22;6073;53.230;10.444;2023-04-24T10:32:41;16.20;99.90
12025;DHT22;6073;53.230;10.444;2023-04-24T10:35:08;16.10;99.90
12025;DHT22;6073;53.230;10.444;2023-04-24T10:37:40;15.80;99.90
12025;DHT22;6073;53.230;10.444;2023-04-24T10:40:09;15.40;99.90
12025;DHT22;6073;53.230;10.444;2023-04-24T10:42:35;15.40;99.90
12025;DHT22;6073;53.230;10.444;2023-04-24T10:45:06;15.90;99.90
12025;DHT22;6073;53.230;10.444;2023-04-24T10:47:40;16.00;99.90
12025;DHT22;6073;53.230;10.444;2023-04-24T10:50:09;15.70;99.90
12025;DHT22;6073;53.230;10.444;2023-04-24T10:52:48;15.60;99.90
12025;DHT22;6073;53.230;10.444;2023-04-24T10:55:16;15.30;99.90
12025;DHT22;6073;53.230;10.444;2023-04-24T10:58:02;15.70;99.90
12025;DHT22;6073;53.230;10.444;2023-04-24T11:00:28;16.60;99.90
12025;DHT22;6073;53.230;10.444;2023-04-24T11:02:54;16.90;99.90
12025;DHT22;6073;53.230;10.444;2023-04-24T11:05:21;17.00;99.90
12025;DHT22;6073;53.230;10.444;2023-04-24T11:08:15;17.10;99.90
12025;DHT22;6073;53.230;10.444;2023-04-24T11:11:16;17.20;99.90
12025;DHT22;6073;53.230;10.444;2023-04-24T11:16:33;16.80;99.90
12025;DHT22;6073;53.230;10.444;2023-04-24T11:19:08;16.80;99.90
12025;DHT22;6073;53.230;10.444;2023-04-24T11:21:41;16.30;99.90
12025;DHT22;6073;53.230;10.444;2023-04-24T11:26:54;16.50;99.90
12025;DHT22;6073;53.230;10.444;2023-04-24T11:29:21;16.40;99.90
12025;DHT22;6073;53.230;10.444;2023-04-24T11:31:47;16.30;99.90
12025;DHT22;6073;53.230;10.444;2023-04-24T11:34:17;16.00;99.90
12025;DHT22;6073;53.230;10.444;2023-04-24T11:36:44;16.00;99.90
12025;DHT22;6073;53.230;10.444;2023-04-24T11:39:10;16.00;99.90
12025;DHT22;6073;53.230;10.444;2023-04-24T11:41:36;16.00;99.90
12025;DHT22;6073;53.230;10.444;2023-04-24T11:44:03;16.00;99.90
12025;DHT22;6073;53.230;10.444;2023-04-24T11:46:31;15.90;99.90
12025;DHT22;6073;53.230;10.444;2023-04-24T11:48:58;15.80;99.90
12025;DHT22;6073;53.230;10.444;2023-04-24T11:51:24;15.70;99.90
12025;DHT22;6073;53.230;10.444;2023-04-24T11:53:54;15.60;99.90
12025;DHT22;6073;53.230;10.444;2023-04-24T11:56:22;15.40;99.90
12025;DHT22;6073;53.230;10.444;2023-04-24T11:58:47;15.40;99.90
12025;DHT22;6073;53.230;10.444;2023-04-24T12:01:13;15.50;99.90
12025;DHT22;6073;53.230;10.444;2023-04-24T12:03:39;15.30;99.90
12025;DHT22;6073;53.230;10.444;2023-04-24T12:06:09;15.00;99.90
12025;DHT22;6073;53.230;10.444;2023-04-24T12:08:36;14.70;99.90
12025;DHT22;6073;53.230;10.444;2023-04-24T12:11:03;14.50;99.90
12025;DHT22;6073;53.230;10.444;2023-04-24T12:13:29;14.30;99.90
12025;DHT22;6073;53.230;10.444;2023-04-24T12:15:56;14.40;99.90
12025;DHT22;6073;53.230;10.444;2023-04-24T12:18:23;14.60;99.90
12025;DHT22;6073;53.230;10.444;2023-04-24T12:20:49;14.70;99.90
12025;DHT22;6073;53.230;10.444;2023-04-24T12:23:15;14.70;99.90
12025;DHT22;6073;53.230;10.444;2023-04-24T12:25:40;14.50;99.90
12025;DHT22;6073;53.230;10.444;2023-04-24T12:30:48;14.70;99.90
12025;DHT22;6073;53.230;10.444;2023-04-24T12:33:23;14.60;99.90
12025;DHT22;6073;53.230;10.444;2023-04-24T12:35:51;14.60;99.90
12025;DHT22;6073;53.230;10.444;2023-04-24T12:38:22;14.60;99.90
12025;DHT22;6073;53.230;10.444;2023-04-24T12:41:05;14.80;99.90
12025;DHT22;6073;53.230;10.444;2023-04-24T12:43:31;15.00;99.90
12025;DHT22;6073;53.230;10.444;2023-04-24T12:45:57;15.20;99.90
12025;DHT22;6073;53.230;10.444;2023-04-24T12:48:22;15.30;99.90
12025;DHT22;6073;53.230;10.444;2023-04-24T12:50:48;15.20;99.90
12025;DHT22;6073;53.230;10.444;2023-04-24T12:53:14;14.90;99.90
12025;DHT22;6073;53.230;10.444;2023-04-24T12:55:41;14.90;99.90
12025;DHT22;6073;53.230;10.444;2023-04-24T12:58:07;14.60;99.90
12025;DHT22;6073;53.230;10.444;2023-04-24T13:00:33;14.50;99.90
12025;DHT22;6073;53.230;10.444;2023-04-24T13:02:58;14.30;99.90
12025;DHT22;6073;53.230;10.444;2023-04-24T13:05:24;14.10;99.90
12025;DHT22;6073;53.230;10.444;2023-04-24T13:07:50;13.90;99.90
12025;DHT22;6073;53.230;10.444;2023-04-24T13:10:16;13.90;99.90
12025;DHT22;6073;53.230;10.444;2023-04-24T13:12:41;13.80;99.90
12025;DHT22;6073;53.230;10.444;2023-04-24T13:15:10;13.80;99.90
12025;DHT22;6073;53.230;10.444;2023-04-24T13:17:36;13.60;99.90
12025;DHT22;6073;53.230;10.444;2023-04-24T13:20:01;13.40;99.90
12025;DHT22;6073;53.230;10.444;2023-04-24T13:22:28;13.40;99.90
12025;DHT22;6073;53.230;10.444;2023-04-24T13:24:53;13.40;99.90
12025;DHT22;6073;53.230;10.444;2023-04-24T13:27:19;13.40;99.90
12025;DHT22;6073;53.230;10.444;2023-04-24T13:29:45;13.30;99.90
12025;DHT22;6073;53.230;10.444;2023-04-24T13:32:11;13.40;99.90
12025;DHT22;6073;53.230;10.444;2023-04-24T13:34:36;13.50;99.90
12025;DHT22;6073;53.230;10.444;2023-04-24T13:37:02;13.50;99.90
12025;DHT22;6073;53.230;10.444;2023-04-24T13:39:31;13.40;99.90
12025;DHT22;6073;53.230;10.444;2023-04-24T13:41:57;13.50;99.90
12025;DHT22;6073;53.230;10.444;2023-04-24T13:44:23;13.50;99.90
12025;DHT22;6073;53.230;10.444;2023-04-24T13:46:52;13.70;99.90
12025;DHT22;6073;53.230;10.444;2023-04-24T13:49:19;13.90;99.90
12025;DHT22;6073;53.230;10.444;2023-04-24T13:51:46;14.40;99.90
12025;DHT22;6073;53.230;10.444;2023-04-24T13:54:12;14.60;99.90
12025;DHT22;6073;53.230;10.444;2023-04-24T13:56:41;14.70;99.90
12025;DHT22;6073;53.230;10.444;2023-04-24T13:59:07;14.60;99.90
12025;DHT22;6073;53.230;10.444;2023-04-24T14:01:32;14.40;99.90
12025;DHT22;6073;53.230;10.444;2023-04-24T14:03:58;14.10;99.90
12025;DHT22;6073;53.230;10.444;2023-04-24T14:06:23;14.00;99.90
12025;DHT22;6073;53.230;10.444;2023-04-24T14:08:49;13.90;99.90
12025;DHT22;6073;53.230;10.444;2023-04-24T14:11:16;13.70;99.90
12025;DHT22;6073;53.230;10.444;2023-04-24T14:13:42;13.50;99.90
12025;DHT22;6073;53.230;10.444;2023-04-24T14:16:08;13.40;99.90
12025;DHT22;6073;53.230;10.444;2023-04-24T14:18:35;13.40;99.90
12025;DHT22;6073;53.230;10.444;2023-04-24T14:21:01;13.60;99.90
12025;DHT22;6073;53.230;10.444;2023-04-24T14:23:27;13.60;99.90
12025;DHT22;6073;53.230;10.444;2023-04-24T14:25:53;13.50;99.90
12025;DHT22;6073;53.230;10.444;2023-04-24T14:28:19;13.40;99.90
12025;DHT22;6073;53.230;10.444;2023-04-24T14:30:46;13.20;99.90
12025;DHT22;6073;53.230;10.444;2023-04-24T14:33:11;13.30;99.90
12025;DHT22;6073;53.230;10.444;2023-04-24T14:35:38;13.10;99.90
12025;DHT22;6073;53.230;10.444;2023-04-24T14:38:04;13.00;99.90
12025;DHT22;6073;53.230;10.444;2023-04-24T14:40:30;13.20;99.90
12025;DHT22;6073;53.230;10.444;2023-04-24T14:42:57;13.40;99.90
12025;DHT22;6073;53.230;10.444;2023-04-24T14:45:24;13.60;99.90
12025;DHT22;6073;53.230;10.444;2023-04-24T14:47:49;13.30;99.90
12025;DHT22;6073;53.230;10.444;2023-04-24T14:50:15;12.90;99.90
12025;DHT22;6073;53.230;10.444;2023-04-24T14:52:40;12.70;99.90
12025;DHT22;6073;53.230;10.444;2023-04-24T14:55:06;12.50;99.90
12025;DHT22;6073;53.230;10.444;2023-04-24T14:57:32;12.50;99.90
12025;DHT22;6073;53.230;10.444;2023-04-24T14:59:58;12.40;99.90
12025;DHT22;6073;53.230;10.444;2023-04-24T15:02:23;12.30;99.90
12025;DHT22;6073;53.230;10.444;2023-04-24T15:04:49;12.00;99.90
12025;DHT22;6073;53.230;10.444;2023-04-24T15:07:15;11.90;99.90
12025;DHT22;6073;53.230;10.444;2023-04-24T15:09:40;11.70;99.90
12025;DHT22;6073;53.230;10.444;2023-04-24T15:12:06;11.50;99.90
12025;DHT22;6073;53.230;10.444;2023-04-24T15:14:32;11.50;99.90
12025;DHT22;6073;53.230;10.444;2023-04-24T15:16:57;11.50;99.90
12025;DHT22;6073;53.230;10.444;2023-04-24T15:19:23;11.30;99.90
12025;DHT22;6073;53.230;10.444;2023-04-24T15:21:48;11.40;99.90
12025;DHT22;6073;53.230;10.444;2023-04-24T15:24:14;11.30;99.90
12025;DHT22;6073;53.230;10.444;2023-04-24T15:26:39;11.30;99.90
12025;DHT22;6073;53.230;10.444;2023-04-24T15:29:05;11.40;99.90
12025;DHT22;6073;53.230;10.444;2023-04-24T15:31:31;11.30;99.90
12025;DHT22;6073;53.230;10.444;2023-04-24T15:33:56;11.30;99.90
12025;DHT22;6073;53.230;10.444;2023-04-24T15:36:22;11.10;99.90
12025;DHT22;6073;53.230;10.444;2023-04-24T15:38:47;11.00;99.90